Time,TemperatureF,DewpointF,PressureIn,WindDirection,WindDirectionDegrees,WindSpeedMPH,WindSpeedGustMPH,Humidity,HourlyPrecipIn,Conditions,Clouds,dailyrainin,SoftwareType,DateUTC
2013-02-04 00:10:00,17.0,15.6,30.14,NW,321,0.0,1.0,94,0.00,,BKN055,0.00,VWS V14.00,2013-02-04 05:10:00,
2013-02-04 00:20:00,16.7,15.3,30.15,NNW,329,2.0,4.0,94,0.00,,BKN055,0.00,VWS V14.00,2013-02-04 05:20:00,
2013-02-04 00:30:00,17.1,15.7,30.15,NW,326,0.0,4.0,94,0.00,,BKN055,0.00,VWS V14.00,2013-02-04 05:30:00,
2013-02-04 00:40:00,17.2,15.8,30.14,NNW,333,4.0,4.0,94,0.00,,BKN055,0.00,VWS V14.00,2013-02-04 05:40:00,
2013-02-04 00:50:00,17.5,16.1,30.14,NNW,334,2.0,5.0,94,0.00,,BKN055,0.00,VWS V14.00,2013-02-04 05:50:00,
2013-02-04 01:00:00,17.5,15.8,30.15,NNW,333,4.0,5.0,93,0.00,,BKN055,0.00,VWS V14.00,2013-02-04 06:00:00,
2013-02-04 01:10:00,17.2,15.5,30.15,NNW,333,3.0,5.0,93,0.00,,BKN055,0.00,VWS V14.00,2013-02-04 06:10:00,
2013-02-04 01:20:00,16.8,14.9,30.15,NNW,328,0.0,4.0,92,0.00,,BKN055,0.00,VWS V14.00,2013-02-04 06:20:00,
2013-02-04 01:30:00,16.3,14.4,30.14,NNW,328,2.0,4.0,92,0.00,,BKN055,0.00,VWS V14.00,2013-02-04 06:30:00,
2013-02-04 01:40:00,16.1,14.4,30.13,NNW,328,0.0,2.0,93,0.00,,BKN055,0.00,VWS V14.00,2013-02-04 06:40:00,
2013-02-04 01:50:00,16.1,14.4,30.13,NNW,328,0.0,2.0,93,0.00,,BKN055,0.00,VWS V14.00,2013-02-04 06:50:00,
2013-02-04 02:00:00,16.1,14.4,30.14,NNW,328,0.0,0.0,93,0.00,,BKN055,0.00,VWS V14.00,2013-02-04 07:00:00,
2013-02-04 02:10:00,16.0,14.3,30.14,NNW,328,0.0,0.0,93,0.00,,BKN055,0.00,VWS V14.00,2013-02-04 07:10:00,
2013-02-04 02:20:00,15.4,13.7,30.14,NNW,328,0.0,0.0,93,0.00,,BKN055,0.00,VWS V14.00,2013-02-04 07:20:00,
2013-02-04 02:30:00,15.3,13.6,30.14,NNW,328,0.0,0.0,93,0.00,,BKN055,0.00,VWS V14.00,2013-02-04 07:30:00,
2013-02-04 02:40:00,15.3,13.6,30.14,NNW,327,0.0,0.0,93,0.00,,BKN055,0.00,VWS V14.00,2013-02-04 07:40:00,
2013-02-04 02:50:00,15.3,13.6,30.13,NNW,328,0.0,0.0,93,0.00,,BKN055,0.00,VWS V14.00,2013-02-04 07:50:00,
2013-02-04 03:00:00,15.4,13.7,30.13,NNW,328,0.0,3.0,93,0.00,,BKN055,0.00,VWS V14.00,2013-02-04 08:00:00,
2013-02-04 03:10:00,15.1,13.4,30.12,NNW,329,0.0,3.0,93,0.00,,BKN055,0.00,VWS V14.00,2013-02-04 08:10:00,
2013-02-04 03:20:00,15.1,13.4,30.12,NNW,329,3.0,3.0,93,0.00,,BKN055,0.00,VWS V14.00,2013-02-04 08:20:00,
2013-02-04 03:30:00,15.0,13.3,30.12,NNW,329,2.0,4.0,93,0.00,,BKN055,0.00,VWS V14.00,2013-02-04 08:30:00,
2013-02-04 03:40:00,14.6,12.9,30.12,NNW,329,2.0,3.0,93,0.00,,BKN055,0.00,VWS V14.00,2013-02-04 08:40:00,
2013-02-04 03:50:00,14.5,12.9,30.12,NNW,333,3.0,4.0,93,0.00,,BKN055,0.00,VWS V14.00,2013-02-04 08:50:00,
2013-02-04 04:00:00,14.4,12.8,30.11,NNW,330,2.0,4.0,93,0.00,,BKN055,0.00,VWS V14.00,2013-02-04 09:00:00,
2013-02-04 04:10:00,14.3,12.6,30.11,NNW,329,4.0,5.0,93,0.00,,BKN055,0.00,VWS V14.00,2013-02-04 09:10:00,
2013-02-04 04:20:00,14.6,12.9,30.11,NNW,334,3.0,5.0,93,0.00,,BKN055,0.00,VWS V14.00,2013-02-04 09:20:00,
2013-02-04 04:30:00,14.8,13.1,30.11,NW,321,2.0,5.0,93,0.00,,BKN055,0.00,VWS V14.00,2013-02-04 09:30:00,
2013-02-04 04:40:00,14.8,13.1,30.11,NW,326,2.0,4.0,93,0.00,,BKN055,0.00,VWS V14.00,2013-02-04 09:40:00,
2013-02-04 04:50:00,14.6,12.7,30.11,NW,326,1.0,2.0,92,0.00,,BKN055,0.00,VWS V14.00,2013-02-04 09:50:00,
2013-02-04 05:00:00,14.4,12.5,30.12,NNW,328,2.0,3.0,92,0.00,,BKN055,0.00,VWS V14.00,2013-02-04 10:00:00,
2013-02-04 05:10:00,14.4,12.5,30.13,NNW,330,0.0,4.0,92,0.00,,BKN055,0.00,VWS V14.00,2013-02-04 10:10:00,
2013-02-04 05:20:00,14.3,12.4,30.13,NNW,331,0.0,2.0,92,0.00,,BKN055,0.00,VWS V14.00,2013-02-04 10:20:00,
2013-02-04 05:30:00,14.3,12.4,30.12,NNW,330,0.0,0.0,92,0.00,,BKN055,0.00,VWS V14.00,2013-02-04 10:30:00,
2013-02-04 05:40:00,14.3,12.4,30.12,NNW,331,0.0,0.0,92,0.00,,BKN055,0.00,VWS V14.00,2013-02-04 10:40:00,
2013-02-04 05:50:00,14.1,12.2,30.11,NNW,330,0.0,0.0,92,0.00,,BKN055,0.00,VWS V14.00,2013-02-04 10:50:00,
2013-02-04 06:00:00,14.3,12.6,30.11,NNW,331,0.0,0.0,93,0.00,,BKN055,0.00,VWS V14.00,2013-02-04 11:00:00,
2013-02-04 06:10:00,14.5,12.9,30.10,NNW,330,0.0,0.0,93,0.00,,BKN055,0.00,VWS V14.00,2013-02-04 11:10:00,
2013-02-04 06:20:00,14.7,13.1,30.09,NNW,331,0.0,0.0,93,0.00,,BKN055,0.00,VWS V14.00,2013-02-04 11:20:00,
2013-02-04 06:30:00,15.1,13.4,30.09,NNW,331,0.0,0.0,93,0.00,,BKN055,0.00,VWS V14.00,2013-02-04 11:30:00,
2013-02-04 06:40:00,16.2,14.8,30.09,NNW,330,2.0,3.0,94,0.00,,BKN055,0.00,VWS V14.00,2013-02-04 11:40:00,
2013-02-04 06:50:00,16.7,15.3,30.08,NNW,333,2.0,4.0,94,0.00,,BKN055,0.00,VWS V14.00,2013-02-04 11:50:00,
2013-02-04 07:00:00,16.7,15.3,30.08,NNW,336,2.0,3.0,94,0.00,,BKN055,0.00,VWS V14.00,2013-02-04 12:00:00,
2013-02-04 07:10:00,16.5,14.8,30.07,NNW,336,0.0,3.0,93,0.00,,BKN055,0.00,VWS V14.00,2013-02-04 12:10:00,
2013-02-04 07:20:00,16.7,15.0,30.07,NNW,336,1.0,3.0,93,0.00,,BKN055,0.00,VWS V14.00,2013-02-04 12:20:00,
2013-02-04 07:30:00,16.8,15.1,30.06,NNW,336,0.0,2.0,93,0.00,,BKN055,0.00,VWS V14.00,2013-02-04 12:30:00,
2013-02-04 07:40:00,17.0,15.3,30.06,NNW,336,0.0,0.0,93,0.00,,BKN055,0.00,VWS V14.00,2013-02-04 12:40:00,
2013-02-04 07:50:00,17.3,15.9,30.06,NNW,336,0.0,0.0,94,0.00,,BKN055,0.00,VWS V14.00,2013-02-04 12:50:00,
2013-02-04 08:00:00,17.8,16.4,30.05,NNW,336,0.0,0.0,94,0.00,,BKN055,0.00,VWS V14.00,2013-02-04 13:00:00,
2013-02-04 08:10:00,18.8,17.4,30.04,SSE,161,2.0,3.0,94,0.00,,BKN055,0.00,VWS V14.00,2013-02-04 13:10:00,
2013-02-04 08:20:00,21.9,20.7,30.03,SSW,192,0.0,3.0,95,0.00,,BKN055,0.00,VWS V14.00,2013-02-04 13:20:00,
2013-02-04 08:30:00,23.5,21.5,30.03,South,174,1.0,6.0,92,0.00,,BKN055,0.00,VWS V14.00,2013-02-04 13:30:00,
2013-02-04 08:40:00,24.2,21.2,30.02,South,178,0.0,2.0,88,0.00,,BKN055,0.00,VWS V14.00,2013-02-04 13:40:00,
2013-02-04 08:50:00,24.8,21.5,30.02,SSE,163,2.0,3.0,87,0.00,,BKN055,0.00,VWS V14.00,2013-02-04 13:50:00,
2013-02-04 09:00:00,25.4,21.8,30.01,South,179,2.0,5.0,86,0.00,,BKN055,0.00,VWS V14.00,2013-02-04 14:00:00,
2013-02-04 09:10:00,26.1,21.9,30.01,South,169,2.0,6.0,84,0.00,,BKN055,0.00,VWS V14.00,2013-02-04 14:10:00,
2013-02-04 09:20:00,26.5,22.3,30.01,South,190,0.0,7.0,84,0.00,,BKN055,0.00,VWS V14.00,2013-02-04 14:20:00,
2013-02-04 09:30:00,26.8,22.0,30.00,SSE,160,1.0,5.0,82,0.00,,BKN055,0.00,VWS V14.00,2013-02-04 14:30:00,
2013-02-04 09:40:00,27.2,23.0,30.00,SSE,157,0.0,4.0,84,0.00,,BKN055,0.00,VWS V14.00,2013-02-04 14:40:00,
2013-02-04 09:50:00,27.8,23.3,30.01,South,184,1.0,5.0,83,0.00,,BKN055,0.00,VWS V14.00,2013-02-04 14:50:00,
2013-02-04 10:00:00,28.2,24.0,30.00,South,176,4.0,4.0,84,0.00,,BKN055,0.00,VWS V14.00,2013-02-04 15:00:00,
2013-02-04 10:10:00,28.7,24.2,29.99,SSE,164,6.0,10.0,83,0.00,,BKN055,0.00,VWS V14.00,2013-02-04 15:10:00,
2013-02-04 10:20:00,29.0,24.5,29.98,SW,217,3.0,6.0,83,0.00,,BKN055,0.00,VWS V14.00,2013-02-04 15:20:00,
2013-02-04 10:30:00,29.3,24.8,29.97,SSE,165,0.0,3.0,83,0.00,,BKN055,0.00,VWS V14.00,2013-02-04 15:30:00,
2013-02-04 10:40:00,30.1,25.6,29.97,South,190,4.0,7.0,83,0.00,,BKN055,0.00,VWS V14.00,2013-02-04 15:40:00,
2013-02-04 10:50:00,30.8,26.5,29.97,South,172,3.0,6.0,84,0.00,,BKN055,0.00,VWS V14.00,2013-02-04 15:50:00,
2013-02-04 11:00:00,31.2,26.4,29.97,SSW,204,2.0,4.0,82,0.00,,BKN055,0.00,VWS V14.00,2013-02-04 16:00:00,
2013-02-04 11:10:00,31.5,26.6,29.96,SW,227,0.0,4.0,82,0.00,,BKN055,0.00,VWS V14.00,2013-02-04 16:10:00,
2013-02-04 11:20:00,31.9,26.7,29.96,South,188,1.0,4.0,81,0.00,,BKN055,0.00,VWS V14.00,2013-02-04 16:20:00,
2013-02-04 11:30:00,32.9,27.7,29.95,SSE,157,0.0,4.0,81,0.00,,BKN055,0.00,VWS V14.00,2013-02-04 16:30:00,
2013-02-04 11:40:00,33.7,27.9,29.94,South,188,0.0,4.0,79,0.00,,BKN055,0.00,VWS V14.00,2013-02-04 16:40:00,
2013-02-04 11:50:00,34.4,27.3,29.94,SW,217,1.0,8.0,75,0.00,,BKN055,0.00,VWS V14.00,2013-02-04 16:50:00,
2013-02-04 12:00:00,34.6,28.1,29.93,SW,216,0.0,8.0,77,0.01,,BKN055,0.01,VWS V14.00,2013-02-04 17:00:00,
2013-02-04 12:10:00,35.1,28.3,29.93,SE,146,3.0,6.0,76,0.01,,BKN055,0.01,VWS V14.00,2013-02-04 17:10:00,
2013-02-04 12:20:00,35.5,28.7,29.92,South,178,0.0,6.0,76,0.01,,BKN055,0.01,VWS V14.00,2013-02-04 17:20:00,
2013-02-04 12:30:00,36.0,28.9,29.91,SW,232,3.0,7.0,75,0.02,,BKN055,0.02,VWS V14.00,2013-02-04 17:30:00,
2013-02-04 12:40:00,36.3,28.8,29.91,SSW,196,2.0,7.0,74,0.02,,BKN055,0.02,VWS V14.00,2013-02-04 17:40:00,
2013-02-04 12:50:00,36.6,29.1,29.90,South,175,1.0,5.0,74,0.02,,BKN055,0.02,VWS V14.00,2013-02-04 17:50:00,
2013-02-04 13:00:00,36.9,29.7,29.89,SSE,159,2.0,6.0,75,0.03,,BKN055,0.03,VWS V14.00,2013-02-04 18:00:00,
2013-02-04 13:10:00,37.3,29.8,29.88,SSW,209,0.0,7.0,74,0.02,,BKN055,0.03,VWS V14.00,2013-02-04 18:10:00,
2013-02-04 13:20:00,38.0,30.5,29.87,SSW,200,0.0,5.0,74,0.02,,BKN055,0.03,VWS V14.00,2013-02-04 18:20:00,
2013-02-04 13:30:00,38.6,30.4,29.87,SSW,205,0.0,6.0,72,0.02,,BKN055,0.03,VWS V14.00,2013-02-04 18:30:00,
2013-02-04 13:40:00,38.9,31.0,29.86,WSW,245,0.0,10.0,73,0.01,,BKN055,0.03,VWS V14.00,2013-02-04 18:40:00,
2013-02-04 13:50:00,39.1,30.9,29.86,WSW,248,2.0,7.0,72,0.01,,BKN055,0.03,VWS V14.00,2013-02-04 18:50:00,
2013-02-04 14:00:00,39.4,30.1,29.87,West,273,0.0,4.0,69,0.01,,BKN055,0.03,VWS V14.00,2013-02-04 19:00:00,
2013-02-04 14:10:00,39.6,29.9,29.87,West,276,0.0,2.0,68,0.00,,BKN055,0.03,VWS V14.00,2013-02-04 19:10:00,
2013-02-04 14:20:00,39.7,30.7,29.85,WNW,289,0.0,0.0,70,0.00,,BKN055,0.03,VWS V14.00,2013-02-04 19:20:00,
2013-02-04 14:30:00,39.8,30.8,29.86,WNW,289,0.0,2.0,70,0.00,,BKN055,0.03,VWS V14.00,2013-02-04 19:30:00,
2013-02-04 14:40:00,39.7,30.0,29.86,NW,320,3.0,4.0,68,0.00,,BKN055,0.03,VWS V14.00,2013-02-04 19:40:00,
2013-02-04 14:50:00,39.6,29.9,29.87,NNW,338,9.0,12.0,68,0.00,,BKN055,0.03,VWS V14.00,2013-02-04 19:50:00,
2013-02-04 15:00:00,39.5,30.2,29.87,West,265,2.0,9.0,69,0.00,,BKN055,0.03,VWS V14.00,2013-02-04 20:00:00,
2013-02-04 15:10:00,39.3,31.0,29.87,WNW,286,2.0,6.0,72,0.00,,BKN055,0.03,VWS V14.00,2013-02-04 20:10:00,
2013-02-04 15:20:00,38.7,32.1,29.88,SW,232,0.0,7.0,77,0.00,,BKN055,0.03,VWS V14.00,2013-02-04 20:20:00,
2013-02-04 15:30:00,38.2,32.6,29.88,SW,223,5.0,7.0,80,0.01,,BKN055,0.04,VWS V14.00,2013-02-04 20:30:00,
2013-02-04 15:40:00,37.6,33.5,29.89,West,264,3.0,7.0,85,0.02,,BKN055,0.05,VWS V14.00,2013-02-04 20:40:00,
2013-02-04 15:50:00,36.5,33.6,29.89,WSW,242,8.0,8.0,89,0.05,,BKN055,0.08,VWS V14.00,2013-02-04 20:50:00,
2013-02-04 16:01:00,35.9,33.5,29.88,WSW,237,2.0,11.0,91,0.07,,BKN055,0.10,VWS V14.00,2013-02-04 21:01:00,
2013-02-04 16:10:00,35.5,33.7,29.88,SW,227,1.0,11.0,93,0.09,,BKN055,0.12,VWS V14.00,2013-02-04 21:10:00,
2013-02-04 16:20:00,35.3,33.5,29.88,WSW,244,0.0,7.0,93,0.11,,BKN055,0.14,VWS V14.00,2013-02-04 21:20:00,
2013-02-04 16:30:00,35.1,33.5,29.88,WSW,237,0.0,6.0,94,0.13,,BKN055,0.16,VWS V14.00,2013-02-04 21:30:00,
2013-02-04 16:40:00,34.9,33.6,29.87,SSW,207,0.0,6.0,95,0.14,,BKN055,0.18,VWS V14.00,2013-02-04 21:40:00,
2013-02-04 16:50:00,34.5,33.2,29.87,South,184,0.0,3.0,95,0.15,,BKN055,0.20,VWS V14.00,2013-02-04 21:50:00,
2013-02-04 17:00:00,34.4,33.1,29.86,WSW,246,0.0,4.0,95,0.14,,BKN055,0.22,VWS V14.00,2013-02-04 22:00:00,
2013-02-04 17:10:00,34.4,33.1,29.85,WSW,246,0.0,0.0,95,0.15,,BKN055,0.25,VWS V14.00,2013-02-04 22:10:00,
2013-02-04 17:20:00,34.4,33.4,29.85,WSW,246,0.0,1.0,96,0.15,,BKN055,0.27,VWS V14.00,2013-02-04 22:20:00,
2013-02-04 17:30:00,34.5,33.5,29.84,WSW,246,0.0,0.0,96,0.15,,BKN055,0.29,VWS V14.00,2013-02-04 22:30:00,
2013-02-04 17:40:00,34.4,33.4,29.85,West,261,0.0,3.0,96,0.14,,BKN055,0.30,VWS V14.00,2013-02-04 22:40:00,
2013-02-04 17:50:00,34.4,33.4,29.85,West,259,0.0,0.0,96,0.12,,BKN055,0.30,VWS V14.00,2013-02-04 22:50:00,
2013-02-04 18:00:00,35.2,34.4,29.85,SSW,196,0.0,9.0,97,0.10,,BKN055,0.30,VWS V14.00,2013-02-04 23:00:00,
2013-02-04 18:10:00,35.7,34.9,29.85,SSW,200,0.0,5.0,97,0.08,,BKN055,0.30,VWS V14.00,2013-02-04 23:10:00,
2013-02-04 18:20:00,35.9,35.1,29.85,SSW,209,0.0,3.0,97,0.05,,BKN055,0.30,VWS V14.00,2013-02-04 23:20:00,
2013-02-04 18:30:00,36.0,35.2,29.85,SSW,207,0.0,2.0,97,0.03,,BKN055,0.30,VWS V14.00,2013-02-04 23:30:00,
2013-02-04 18:40:00,36.2,35.4,29.85,SW,231,0.0,3.0,97,0.01,,BKN055,0.30,VWS V14.00,2013-02-04 23:40:00,
2013-02-04 18:50:00,36.1,35.3,29.85,SW,230,0.0,0.0,97,0.00,,BKN055,0.30,VWS V14.00,2013-02-04 23:50:00,
2013-02-04 19:00:00,36.1,35.3,29.86,SW,231,0.0,0.0,97,0.00,,BKN055,0.30,VWS V14.00,2013-02-05 00:00:00,
2013-02-04 19:10:00,34.9,33.6,29.86,SW,232,0.0,0.0,95,0.00,,BKN055,0.30,VWS V14.00,2013-02-05 00:10:00,
2013-02-04 19:20:00,34.0,32.7,29.86,WSW,255,0.0,0.0,95,0.00,,BKN055,0.30,VWS V14.00,2013-02-05 00:20:00,
2013-02-04 19:30:00,33.4,32.4,29.86,WSW,256,0.0,0.0,96,0.00,,BKN055,0.30,VWS V14.00,2013-02-05 00:30:00,
2013-02-04 19:40:00,33.6,32.8,29.86,NW,326,2.0,3.0,97,0.00,,BKN055,0.30,VWS V14.00,2013-02-05 00:40:00,
2013-02-04 19:50:00,33.9,33.1,29.86,NNW,335,3.0,5.0,97,0.00,,BKN055,0.30,VWS V14.00,2013-02-05 00:50:00,
2013-02-04 20:00:00,34.0,33.2,29.87,NNW,333,3.0,5.0,97,0.00,,BKN055,0.30,VWS V14.00,2013-02-05 01:00:00,
2013-02-04 20:10:00,34.2,33.4,29.87,NNW,338,2.0,5.0,97,0.00,,BKN055,0.30,VWS V14.00,2013-02-05 01:10:00,
2013-02-04 20:20:00,33.8,33.0,29.87,NNW,338,3.0,4.0,97,0.00,,BKN055,0.30,VWS V14.00,2013-02-05 01:20:00,
2013-02-04 20:30:00,33.6,32.8,29.88,NNW,339,0.0,3.0,97,0.00,,BKN055,0.30,VWS V14.00,2013-02-05 01:30:00,
2013-02-04 20:40:00,33.5,32.7,29.87,NNW,339,0.0,2.0,97,0.00,,BKN055,0.30,VWS V14.00,2013-02-05 01:40:00,
2013-02-04 20:50:00,33.4,32.6,29.87,NNW,339,0.0,0.0,97,0.00,,BKN055,0.30,VWS V14.00,2013-02-05 01:50:00,
2013-02-04 21:00:00,33.4,32.6,29.88,NNW,338,0.0,0.0,97,0.00,,BKN055,0.30,VWS V14.00,2013-02-05 02:00:00,
2013-02-04 21:10:00,33.4,32.6,29.88,NNW,339,0.0,0.0,97,0.00,,BKN055,0.30,VWS V14.00,2013-02-05 02:10:00,
2013-02-04 21:20:00,33.4,32.6,29.88,NNW,338,0.0,0.0,97,0.00,,BKN055,0.30,VWS V14.00,2013-02-05 02:20:00,
2013-02-04 21:30:00,33.4,32.6,29.89,NNW,339,0.0,0.0,97,0.00,,BKN055,0.30,VWS V14.00,2013-02-05 02:30:00,
2013-02-04 21:40:00,33.4,32.6,29.89,NNW,338,0.0,0.0,97,0.00,,BKN055,0.30,VWS V14.00,2013-02-05 02:40:00,
2013-02-04 21:50:00,33.4,32.9,29.89,NNW,339,0.0,2.0,98,0.00,,BKN055,0.30,VWS V14.00,2013-02-05 02:50:00,
2013-02-04 22:00:00,33.3,32.8,29.89,NNW,339,0.0,1.0,98,0.00,,BKN055,0.30,VWS V14.00,2013-02-05 03:00:00,
2013-02-04 22:10:00,33.4,32.9,29.89,NNW,339,0.0,3.0,98,0.00,,BKN055,0.30,VWS V14.00,2013-02-05 03:10:00,
2013-02-04 22:20:00,33.4,32.9,29.89,NNW,339,0.0,0.0,98,0.00,,BKN055,0.30,VWS V14.00,2013-02-05 03:20:00,
2013-02-04 22:30:00,33.4,32.9,29.89,NNW,339,0.0,0.0,98,0.00,,BKN055,0.30,VWS V14.00,2013-02-05 03:30:00,
2013-02-04 22:40:00,33.4,32.9,29.89,NNW,338,0.0,0.0,98,0.00,,BKN055,0.30,VWS V14.00,2013-02-05 03:40:00,
2013-02-04 22:50:00,33.4,32.9,29.89,NNW,339,0.0,0.0,98,0.00,,BKN055,0.30,VWS V14.00,2013-02-05 03:50:00,
2013-02-04 23:00:00,33.5,33.0,29.89,NNW,339,0.0,0.0,98,0.00,,BKN055,0.30,VWS V14.00,2013-02-05 04:00:00,
2013-02-04 23:10:00,33.5,33.0,29.88,NNW,338,0.0,2.0,98,0.00,,BKN055,0.30,VWS V14.00,2013-02-05 04:10:00,
2013-02-04 23:20:00,33.5,33.0,29.88,NNW,339,0.0,0.0,98,0.00,,BKN055,0.30,VWS V14.00,2013-02-05 04:20:00,
2013-02-04 23:30:00,33.5,33.0,29.88,NNW,338,1.0,2.0,98,0.00,,BKN055,0.30,VWS V14.00,2013-02-05 04:30:00,
2013-02-04 23:40:00,33.5,33.0,29.88,NNW,339,0.0,2.0,98,0.00,,BKN055,0.30,VWS V14.00,2013-02-05 04:40:00,
2013-02-04 23:50:00,33.5,33.0,29.88,NNW,339,0.0,0.0,98,0.00,,BKN055,0.30,VWS V14.00,2013-02-05 04:50:00,